GB-0217 weather

Clutton Hill Airstrip
England, United Kingdom

Public forecast

Using degrees Celsius for public forecast. Weather courtesy of forecast.io.

METAR (pilot weather report)

Closest report is Bristol Airport, 7.8 nm (14.4 km) WNW. Retrieved 2019/07/17 05:20 UTC (17 minutes ago):

EGGD 170520Z AUTO 24004KT 7000 NCD 15/14 Q1016

TAF (pilot weather forecast)

Forecast is more than 12 hours old.

Closest forecast is Bristol Airport, 7.8 nm (14.4 km) WNW. Retrieved 2019/07/16 00:00 UTC (1 day ago):

TAF EGGD 162256Z 1700/1724 25006KT 9999 FEW025 PROB30 1702/1707 2000 BR BKN002 PROB30 TEMPO 1718/1724 8000 RA SHRA